Time;durP1;ratioP1;P1;durP2;ratioP2;P2;SDS_P1;SDS_P2;PMS_P1;PMS_P2;Temp;Humidity;BMP_temperature;BMP_pressure;BME280_temperature;BME280_humidity;BME280_pressure;Samples;Min_cycle;Max_cycle;Signal;HPM_P1;HPM_P2
2021/07/28 00:01:04;;;;;;;13.95;5.80;;;;;;;19.24;65.82;99952.67;125553;1096;22805;-63
2021/07/28 00:03:37;;;;;;;14.05;5.35;;;;;;;19.17;66.15;99947.66;125664;1094;24449;-63
2021/07/28 00:06:08;;;;;;;16.43;4.87;;;;;;;19.12;65.62;99945.70;125643;1096;22815;-63
2021/07/28 00:08:40;;;;;;;16.05;4.88;;;;;;;19.12;65.95;99940.81;125520;1095;22820;-64
2021/07/28 00:11:15;;;;;;;14.27;4.77;;;;;;;19.11;66.07;99941.36;125599;1096;26296;-63
2021/07/28 00:13:48;;;;;;;13.67;4.70;;;;;;;19.05;65.99;99932.23;125670;1096;22829;-64
2021/07/28 00:16:20;;;;;;;13.27;4.90;;;;;;;19.00;66.17;99933.86;125712;1096;22792;-63
2021/07/28 00:19:02;;;;;;;14.87;4.43;;;;;;;18.99;66.07;99931.58;125585;1094;22947;-63
2021/07/28 00:24:30;;;;;;;13.90;4.45;;;;;;;18.92;66.54;99924.50;125450;1095;24436;-63
2021/07/28 00:27:02;;;;;;;12.30;4.28;;;;;;;18.92;66.37;99920.91;125465;1095;22815;-63
2021/07/28 00:29:37;;;;;;;13.43;4.73;;;;;;;18.93;66.18;99919.62;125607;1094;22791;-63
2021/07/28 00:32:09;;;;;;;13.05;4.40;;;;;;;18.92;66.29;99906.77;125572;1096;24214;-63
2021/07/28 00:34:42;;;;;;;11.90;4.00;;;;;;;18.90;66.64;99910.15;125685;1096;22799;-63
2021/07/28 00:37:14;;;;;;;13.50;4.90;;;;;;;18.85;66.72;99910.27;126120;1096;22800;-63
2021/07/28 00:39:46;;;;;;;13.20;5.60;;;;;;;18.78;66.70;99903.20;125843;1095;22857;-63
2021/07/28 00:42:18;;;;;;;12.63;4.43;;;;;;;18.77;66.75;99915.03;125812;1096;22800;-63
2021/07/28 00:44:50;;;;;;;10.53;4.10;;;;;;;18.77;66.77;99909.38;125864;1095;26270;-63
2021/07/28 00:47:21;;;;;;;13.28;4.25;;;;;;;18.73;66.97;99903.28;126002;1095;22810;-63
2021/07/28 00:49:54;;;;;;;12.17;4.70;;;;;;;18.71;67.09;99900.23;126045;1096;22809;-63
2021/07/28 00:52:26;;;;;;;13.10;5.20;;;;;;;18.64;67.45;99904.50;126493;1096;24825;-63
2021/07/28 00:54:58;;;;;;;13.87;4.50;;;;;;;18.61;66.88;99904.80;126088;1096;24191;-63
2021/07/28 00:57:31;;;;;;;13.65;4.85;;;;;;;18.60;67.21;99903.30;125916;1096;22796;-63
2021/07/28 01:00:04;;;;;;;16.83;4.58;;;;;;;18.58;67.32;99898.94;125703;1096;22795;-63
2021/07/28 01:02:36;;;;;;;12.87;4.70;;;;;;;18.59;67.04;99894.05;126039;1096;22820;-63
2021/07/28 01:05:10;;;;;;;12.17;4.50;;;;;;;18.61;67.28;99891.44;125744;1096;24743;-63
2021/07/28 01:07:43;;;;;;;12.50;4.57;;;;;;;18.63;67.15;99890.89;125878;1096;22796;-64
2021/07/28 01:10:15;;;;;;;15.57;4.83;;;;;;;18.61;67.71;99887.84;125731;1096;23006;-63
2021/07/28 01:12:53;;;;;;;16.93;5.73;;;;;;;18.54;67.51;99884.36;125706;1096;22949;-63
2021/07/28 01:18:16;;;;;;;14.03;5.47;;;;;;;18.47;67.79;99879.38;125568;1096;27294;-63
2021/07/28 01:20:50;;;;;;;13.53;6.05;;;;;;;18.43;67.91;99881.77;125659;1096;22826;-63
2021/07/28 01:23:26;;;;;;;14.97;6.07;;;;;;;18.40;68.23;99893.34;125676;1095;22874;-63
2021/07/28 01:26:01;;;;;;;18.20;5.40;;;;;;;18.36;67.74;99899.33;125814;1096;25884;-63
2021/07/28 01:28:34;;;;;;;14.10;5.80;;;;;;;18.37;68.08;99891.61;125680;1096;25883;-63
2021/07/28 01:31:07;;;;;;;15.20;5.25;;;;;;;18.38;67.95;99893.13;125817;1096;25884;-63
2021/07/28 01:33:41;;;;;;;13.20;4.27;;;;;;;18.34;67.97;99893.45;125589;1095;22897;-63
2021/07/28 01:36:16;;;;;;;14.03;5.73;;;;;;;18.27;68.59;99896.91;125647;1095;22816;-63
2021/07/28 01:38:48;;;;;;;14.17;4.90;;;;;;;18.16;69.00;99888.64;125705;1095;26302;-63
2021/07/28 01:41:22;;;;;;;17.93;5.33;;;;;;;18.09;68.50;99900.56;125544;1096;22822;-63
2021/07/28 01:43:54;;;;;;;11.23;4.93;;;;;;;18.04;68.59;99895.79;125528;1095;22804;-63
2021/07/28 01:46:27;;;;;;;16.90;5.23;;;;;;;18.00;68.55;99895.31;125527;1096;22785;-63
2021/07/28 01:48:59;;;;;;;14.25;5.40;;;;;;;17.98;68.58;99892.27;125531;1096;22837;-63
2021/07/28 01:51:31;;;;;;;13.80;5.45;;;;;;;17.97;68.76;99889.98;125861;1096;24612;-63
2021/07/28 01:54:04;;;;;;;12.97;4.87;;;;;;;17.99;68.53;99879.69;125908;1096;24198;-63
2021/07/28 01:56:42;;;;;;;14.03;4.60;;;;;;;18.00;68.82;99878.37;125979;1096;22782;-63
2021/07/28 01:59:15;;;;;;;12.57;4.03;;;;;;;18.02;68.64;99875.02;125835;1096;22816;-63
2021/07/28 02:01:47;;;;;;;16.45;4.95;;;;;;;18.04;69.20;99875.25;125858;1096;27119;-63
2021/07/28 02:04:18;;;;;;;14.70;5.47;;;;;;;18.02;69.51;99870.11;125849;1096;24255;-63
2021/07/28 02:06:50;;;;;;;12.77;5.43;;;;;;;18.00;69.65;99872.72;126619;1095;23488;-60
2021/07/28 02:09:21;;;;;;;16.70;5.80;;;;;;;17.99;69.51;99864.80;126045;1095;22787;-58
2021/07/28 02:11:53;;;;;;;13.63;5.93;;;;;;;17.98;69.51;99869.67;126142;1096;22817;-58
2021/07/28 02:14:24;;;;;;;14.43;5.73;;;;;;;17.97;69.76;99873.81;126080;1095;22932;-60
2021/07/28 02:16:57;;;;;;;15.23;6.13;;;;;;;17.93;69.93;99881.84;126164;1095;27345;-59
2021/07/28 02:19:29;;;;;;;22.67;6.83;;;;;;;17.91;69.93;99881.62;126285;1096;22777;-58
2021/07/28 02:22:00;;;;;;;13.50;5.70;;;;;;;17.88;69.93;99887.59;126112;1096;27147;-58
2021/07/28 02:24:32;;;;;;;14.15;5.50;;;;;;;17.84;69.73;99885.06;126217;1095;22813;-58
2021/07/28 02:27:04;;;;;;;13.45;5.90;;;;;;;17.84;69.41;99873.77;126121;1095;22788;-59
2021/07/28 02:29:37;;;;;;;13.85;5.75;;;;;;;17.88;69.85;99870.65;126212;1096;22922;-59
2021/07/28 02:32:11;;;;;;;14.67;5.77;;;;;;;17.87;70.17;99875.52;126259;1096;22810;-60
2021/07/28 02:34:43;;;;;;;19.15;5.85;;;;;;;17.83;69.88;99871.48;126223;1095;25800;-57
2021/07/28 02:37:14;;;;;;;14.20;5.80;;;;;;;17.78;70.45;99875.92;126114;1096;22786;-59
2021/07/28 02:39:46;;;;;;;14.50;6.25;;;;;;;17.74;69.88;99872.64;126201;1096;22877;-58
2021/07/28 02:42:17;;;;;;;24.63;7.30;;;;;;;17.72;70.06;99878.07;126180;1096;22781;-62
2021/07/28 02:44:48;;;;;;;16.80;6.20;;;;;;;17.71;70.44;99873.73;126172;1096;22804;-59
2021/07/28 02:47:21;;;;;;;19.03;6.17;;;;;;;17.69;70.05;99876.34;126170;1096;22791;-60
2021/07/28 02:49:52;;;;;;;14.45;5.30;;;;;;;17.68;70.33;99877.63;126110;1095;22813;-59
2021/07/28 02:52:24;;;;;;;14.30;5.97;;;;;;;17.68;70.42;99880.45;126163;1096;26293;-58
2021/07/28 02:54:55;;;;;;;14.63;6.80;;;;;;;17.66;70.00;99886.64;126132;1096;22816;-59
2021/07/28 02:57:27;;;;;;;15.10;5.80;;;;;;;17.66;70.37;99874.58;126214;1096;24616;-59
2021/07/28 02:59:58;;;;;;;13.95;5.90;;;;;;;17.67;70.29;99878.94;126245;1095;22807;-59
2021/07/28 03:02:30;;;;;;;14.65;6.00;;;;;;;17.65;70.46;99870.21;126040;1097;26040;-59
2021/07/28 03:05:03;;;;;;;15.85;5.70;;;;;;;17.58;70.42;99876.50;126049;1095;22800;-59
2021/07/28 03:07:35;;;;;;;13.97;5.63;;;;;;;17.54;70.39;99876.05;126285;1096;22804;-60
2021/07/28 03:10:07;;;;;;;18.63;7.03;;;;;;;17.53;70.67;99869.63;126237;1096;22800;-60
2021/07/28 03:12:39;;;;;;;15.20;6.75;;;;;;;17.52;70.29;99873.00;126243;1096;22854;-56
2021/07/28 03:15:15;;;;;;;14.35;6.10;;;;;;;17.49;70.62;99868.39;126215;1096;24477;-58
2021/07/28 03:17:46;;;;;;;14.45;7.30;;;;;;;17.39;70.91;99872.89;126528;1095;24450;-58
2021/07/28 03:20:19;;;;;;;18.45;6.00;;;;;;;17.27;70.96;99863.07;126195;1096;24515;-58
2021/07/28 03:22:53;;;;;;;14.70;6.60;;;;;;;17.24;71.30;99861.30;126264;1096;22780;-58
2021/07/28 03:25:25;;;;;;;15.65;6.15;;;;;;;17.24;71.21;99850.02;126301;1095;22788;-57
2021/07/28 03:27:57;;;;;;;17.45;5.75;;;;;;;17.24;71.37;99850.02;126240;1095;23926;-58
2021/07/28 03:30:28;;;;;;;13.65;6.10;;;;;;;17.25;71.33;99846.69;126144;1096;27518;-59
2021/07/28 03:33:00;;;;;;;14.15;5.65;;;;;;;17.26;71.40;99851.02;126243;1096;22974;-59
2021/07/28 03:35:31;;;;;;;14.30;5.40;;;;;;;17.26;71.47;99855.89;126281;1095;22806;-58
2021/07/28 03:38:03;;;;;;;14.75;6.35;;;;;;;17.28;71.51;99856.12;126135;1095;22789;-59
2021/07/28 03:40:36;;;;;;;17.90;5.90;;;;;;;17.28;71.78;99858.94;126225;1095;22751;-58
2021/07/28 03:43:08;;;;;;;15.40;6.25;;;;;;;17.28;71.83;99856.89;126367;1096;22935;-60
2021/07/28 03:45:39;;;;;;;15.60;5.85;;;;;;;17.29;71.33;99861.25;126130;1095;22776;-58
2021/07/28 03:48:11;;;;;;;14.30;6.10;;;;;;;17.29;72.02;99860.48;126184;1095;27115;-60
2021/07/28 03:50:42;;;;;;;13.15;5.80;;;;;;;17.27;72.06;99857.43;126108;1095;22744;-60
2021/07/28 03:53:14;;;;;;;13.05;5.30;;;;;;;17.24;72.21;99859.25;126113;1094;22857;-59
2021/07/28 03:55:45;;;;;;;14.70;6.65;;;;;;;17.25;71.92;99860.02;126181;1096;22806;-59
2021/07/28 03:58:16;;;;;;;17.43;6.33;;;;;;;17.25;71.92;99851.56;126409;1096;22801;-59
2021/07/28 04:00:48;;;;;;;19.25;6.55;;;;;;;17.28;72.46;99858.94;126194;1095;22821;-59
2021/07/28 04:03:20;;;;;;;15.07;6.73;;;;;;;17.31;72.32;99861.48;126110;1096;25736;-60
2021/07/28 04:05:55;;;;;;;17.40;6.75;;;;;;;17.34;72.20;99865.30;126161;1095;22828;-58
2021/07/28 04:08:28;;;;;;;18.70;7.75;;;;;;;17.37;72.78;99856.52;126153;1096;22811;-59
2021/07/28 04:11:00;;;;;;;13.90;5.85;;;;;;;17.42;73.26;99866.20;126244;1096;22780;-58
2021/07/28 04:13:34;;;;;;;13.35;6.45;;;;;;;17.47;72.75;99865.34;126224;1096;22831;-60
2021/07/28 04:16:06;;;;;;;18.90;6.95;;;;;;;17.49;72.95;99855.08;126112;1095;26309;-61
2021/07/28 04:18:38;;;;;;;16.45;7.85;;;;;;;17.52;73.02;99853.24;126216;1096;22770;-59
2021/07/28 04:21:10;;;;;;;17.65;7.60;;;;;;;17.55;72.89;99855.75;125880;1096;22807;-65
2021/07/28 04:23:42;;;;;;;21.80;8.05;;;;;;;17.59;73.13;99849.78;126300;1096;25796;-59
2021/07/28 04:26:15;;;;;;;17.90;7.50;;;;;;;17.61;73.54;99847.19;126211;1095;22804;-61
2021/07/28 04:28:47;;;;;;;16.95;6.80;;;;;;;17.63;73.15;99842.53;126312;1095;22794;-58
2021/07/28 04:31:18;;;;;;;17.53;6.93;;;;;;;17.67;73.19;99850.70;126148;1095;22857;-60
2021/07/28 04:33:51;;;;;;;16.70;6.90;;;;;;;17.70;73.46;99843.97;126089;1095;22775;-60
2021/07/28 04:36:22;;;;;;;16.75;7.35;;;;;;;17.74;73.51;99842.36;126352;1095;22787;-62
2021/07/28 04:38:54;;;;;;;16.40;6.95;;;;;;;17.77;73.60;99846.17;126249;1095;22782;-61
2021/07/28 04:41:26;;;;;;;23.00;7.95;;;;;;;17.78;73.76;99845.63;126263;1096;22810;-60
2021/07/28 04:43:57;;;;;;;24.33;7.73;;;;;;;17.80;73.48;99847.91;126306;1096;22770;-60
2021/07/28 04:46:29;;;;;;;17.95;7.65;;;;;;;17.82;73.96;99848.13;126108;1096;27657;-58
2021/07/28 04:49:01;;;;;;;19.70;8.33;;;;;;;17.85;73.65;99846.30;126262;1095;22788;-59
2021/07/28 04:51:34;;;;;;;16.07;7.07;;;;;;;17.89;74.05;99839.03;126401;1096;22929;-59
2021/07/28 04:54:06;;;;;;;19.60;7.95;;;;;;;17.94;73.92;99845.90;126108;1096;28365;-61
2021/07/28 04:56:38;;;;;;;19.40;8.10;;;;;;;17.99;73.60;99845.80;125843;1096;28671;-61
2021/07/28 04:59:09;;;;;;;19.60;9.05;;;;;;;18.05;74.42;99837.98;125807;1097;22785;-60
2021/07/28 05:01:42;;;;;;;17.75;8.15;;;;;;;18.09;74.03;99835.59;125736;1096;22806;-59
2021/07/28 05:04:13;;;;;;;19.45;8.40;;;;;;;18.13;73.94;99830.38;125754;1094;22821;-60
2021/07/28 05:06:45;;;;;;;18.45;7.80;;;;;;;18.20;74.16;99829.75;125917;1097;22813;-62
2021/07/28 05:09:17;;;;;;;26.50;9.10;;;;;;;18.29;73.98;99837.05;125546;1096;22780;-61
2021/07/28 05:11:48;;;;;;;22.05;8.30;;;;;;;18.37;74.20;99835.09;125625;1095;24519;-60
2021/07/28 05:14:20;;;;;;;16.73;7.97;;;;;;;18.44;74.20;99823.91;125451;1096;22807;-61
2021/07/28 05:16:52;;;;;;;25.00;8.30;;;;;;;18.50;74.25;99824.56;126437;1095;22776;-61
2021/07/28 05:19:24;;;;;;;19.85;9.05;;;;;;;18.58;74.33;99821.09;125723;1096;22773;-63
2021/07/28 05:21:56;;;;;;;20.85;8.70;;;;;;;18.63;74.19;99826.63;125700;1096;28920;-60
2021/07/28 05:24:27;;;;;;;17.33;8.63;;;;;;;18.70;73.89;99825.98;125717;1096;22835;-61
2021/07/28 05:26:59;;;;;;;18.50;8.08;;;;;;;18.77;73.81;99824.53;126282;1096;24443;-61
2021/07/28 05:29:30;;;;;;;23.20;7.93;;;;;;;18.83;74.11;99831.60;125752;1096;25858;-60
2021/07/28 05:32:02;;;;;;;19.90;8.57;;;;;;;18.90;73.91;99835.84;125855;1096;22983;-61
2021/07/28 05:34:33;;;;;;;18.35;9.53;;;;;;;18.96;74.23;99833.65;125760;1096;22864;-59
2021/07/28 05:37:06;;;;;;;20.10;8.87;;;;;;;19.01;73.85;99835.61;125722;1096;22770;-66
2021/07/28 05:39:37;;;;;;;20.97;8.70;;;;;;;19.09;74.29;99837.23;125727;1096;22814;-61
2021/07/28 05:42:11;;;;;;;19.43;9.10;;;;;;;19.20;74.40;99830.56;126230;1096;25963;-61
2021/07/28 05:44:42;;;;;;;20.50;9.53;;;;;;;19.30;74.19;99840.84;125808;1096;22777;-57
2021/07/28 05:47:14;;;;;;;19.88;10.25;;;;;;;19.40;74.32;99835.52;125845;1096;24484;-61
2021/07/28 05:49:45;;;;;;;23.33;9.67;;;;;;;19.50;74.10;99844.30;125672;1095;22782;-61
2021/07/28 05:52:17;;;;;;;20.55;9.70;;;;;;;19.58;74.10;99830.97;125852;1096;22918;-60
2021/07/28 05:54:48;;;;;;;20.33;9.90;;;;;;;19.63;74.06;99839.36;126059;1095;22807;-60
2021/07/28 05:57:19;;;;;;;24.30;9.43;;;;;;;19.71;74.06;99833.75;125638;1095;22783;-61
2021/07/28 05:59:51;;;;;;;20.00;9.45;;;;;;;19.78;73.94;99830.24;125497;1096;22803;-62
2021/07/28 06:02:23;;;;;;;20.80;9.40;;;;;;;19.87;74.06;99826.91;125623;1096;23260;-58
2021/07/28 06:04:54;;;;;;;20.60;9.03;;;;;;;19.91;74.02;99825.25;125658;1095;22795;-61
2021/07/28 06:07:25;;;;;;;22.03;9.90;;;;;;;19.97;73.68;99828.70;125732;1096;22794;-61
2021/07/28 06:09:57;;;;;;;27.27;9.63;;;;;;;20.00;73.94;99829.67;125625;1095;23326;-60
2021/07/28 06:12:28;;;;;;;23.73;9.88;;;;;;;20.04;73.71;99825.17;125744;1095;22780;-60
2021/07/28 06:15:11;;;;;;;17.65;7.93;;;;;;;20.10;74.03;99820.13;125542;1096;22974;-60
2021/07/28 06:17:42;;;;;;;26.73;9.90;;;;;;;20.12;73.62;99820.33;125723;1094;22778;-60
2021/07/28 06:20:17;;;;;;;21.05;10.18;;;;;;;20.17;73.91;99827.91;125628;1096;22818;-59
2021/07/28 06:22:49;;;;;;;22.00;9.63;;;;;;;20.21;74.29;99826.83;125733;1095;22803;-62
2021/07/28 06:25:21;;;;;;;25.78;10.13;;;;;;;20.26;73.99;99835.18;125672;1097;24446;-61
2021/07/28 06:27:53;;;;;;;18.48;9.18;;;;;;;20.31;74.00;99837.12;125687;1095;22786;-62
2021/07/28 06:30:25;;;;;;;23.70;10.08;;;;;;;20.33;73.84;99842.22;125628;1096;26430;-60
2021/07/28 06:32:56;;;;;;;19.50;9.53;;;;;;;20.37;73.64;99834.13;125798;1097;24484;-61
2021/07/28 06:35:28;;;;;;;23.30;8.98;;;;;;;20.41;73.74;99838.13;125645;1096;22807;-61
2021/07/28 06:37:59;;;;;;;19.55;9.18;;;;;;;20.46;74.00;99840.06;125825;1095;22792;-61
2021/07/28 06:40:31;;;;;;;18.70;10.30;;;;;;;20.49;73.87;99847.44;125641;1096;24449;-58
2021/07/28 06:43:03;;;;;;;19.37;8.43;;;;;;;20.54;74.13;99843.70;125812;1096;27790;-60
2021/07/28 06:45:34;;;;;;;22.45;9.15;;;;;;;20.57;74.15;99839.73;125612;1096;22804;-61
2021/07/28 06:48:06;;;;;;;18.93;8.45;;;;;;;20.60;74.12;99844.30;125672;1095;23538;-62
2021/07/28 06:50:38;;;;;;;20.55;9.50;;;;;;;20.63;74.03;99840.34;125792;1096;22924;-62
2021/07/28 06:53:10;;;;;;;18.98;9.28;;;;;;;20.69;74.35;99834.52;125630;1097;22777;-61
2021/07/28 06:55:42;;;;;;;22.10;9.25;;;;;;;20.73;74.26;99829.25;125853;1097;22830;-61
2021/07/28 06:58:13;;;;;;;16.70;7.60;;;;;;;20.78;73.76;99837.59;125847;1097;24451;-61
2021/07/28 07:00:45;;;;;;;24.13;8.45;;;;;;;20.86;73.99;99834.78;125670;1096;22874;-61
2021/07/28 07:03:18;;;;;;;22.88;9.08;;;;;;;20.92;73.83;99829.70;125658;1096;22800;-59
2021/07/28 07:05:49;;;;;;;17.10;8.60;;;;;;;21.00;73.74;99829.75;125644;1096;22806;-61
2021/07/28 07:08:22;;;;;;;17.70;7.35;;;;;;;21.09;73.91;99832.83;125559;1095;22814;-59
2021/07/28 07:10:55;;;;;;;15.95;7.55;;;;;;;21.25;73.96;99834.39;125621;1095;25097;-62
2021/07/28 07:13:26;;;;;;;17.15;7.20;;;;;;;21.41;73.83;99835.98;125721;1096;23277;-59
2021/07/28 07:15:58;;;;;;;23.48;7.23;;;;;;;21.62;73.78;99821.63;125747;1096;22810;-63
2021/07/28 07:18:29;;;;;;;18.65;6.55;;;;;;;21.84;73.37;99822.98;125979;1095;27214;-63
2021/07/28 07:21:01;;;;;;;13.50;5.50;;;;;;;22.01;73.34;99818.27;125655;1095;22804;-60
2021/07/28 07:23:33;;;;;;;15.17;6.27;;;;;;;22.20;73.17;99804.40;125657;1095;27701;-61
2021/07/28 07:26:07;;;;;;;14.85;5.53;;;;;;;22.38;72.74;99808.95;125728;1096;25886;-60
2021/07/28 07:28:39;;;;;;;10.93;4.83;;;;;;;22.54;72.82;99804.73;125772;1096;22809;-60
2021/07/28 07:31:13;;;;;;;15.28;5.30;;;;;;;22.78;72.57;99811.88;125779;1096;27389;-62
2021/07/28 07:33:47;;;;;;;14.30;4.48;;;;;;;22.94;71.84;99815.44;125764;1095;22798;-62
2021/07/28 07:36:19;;;;;;;15.85;5.18;;;;;;;23.07;71.90;99809.52;125705;1096;24741;-62
2021/07/28 07:38:54;;;;;;;16.08;4.73;;;;;;;23.23;71.57;99820.25;125684;1097;26335;-60
2021/07/28 07:41:26;;;;;;;13.75;4.53;;;;;;;23.38;71.01;99813.75;125743;1096;22847;-63
2021/07/28 07:43:58;;;;;;;16.18;4.70;;;;;;;23.58;71.04;99811.89;125768;1096;22780;-62
2021/07/28 07:46:29;;;;;;;12.68;4.05;;;;;;;23.75;70.30;99809.13;125717;1096;22796;-63
2021/07/28 07:49:01;;;;;;;17.38;4.95;;;;;;;23.91;69.90;99808.42;125809;1095;22841;-61
2021/07/28 07:51:33;;;;;;;12.45;3.48;;;;;;;24.07;69.79;99806.22;125860;1095;22815;-61
2021/07/28 07:54:06;;;;;;;11.48;3.83;;;;;;;24.22;69.49;99797.53;125622;1095;22781;-62
2021/07/28 07:56:38;;;;;;;14.03;2.90;;;;;;;24.36;68.71;99797.95;125684;1096;22779;-61
2021/07/28 07:59:09;;;;;;;10.05;3.53;;;;;;;24.47;68.83;99794.61;125478;1096;27290;-62
2021/07/28 08:01:41;;;;;;;12.18;3.70;;;;;;;24.58;68.38;99791.27;125605;1096;22937;-62
2021/07/28 08:04:12;;;;;;;13.23;3.93;;;;;;;24.70;68.00;99793.03;125698;1095;26295;-61
2021/07/28 08:06:44;;;;;;;15.83;3.87;;;;;;;24.79;68.01;99800.92;125664;1095;22816;-62
2021/07/28 08:09:16;;;;;;;14.38;3.80;;;;;;;24.87;67.42;99801.59;125681;1096;26341;-62
2021/07/28 08:11:47;;;;;;;11.27;3.77;;;;;;;24.97;67.51;99800.91;125688;1096;25507;-60
2021/07/28 08:14:19;;;;;;;13.68;4.05;;;;;;;25.07;67.59;99799.64;125713;1096;22803;-61
2021/07/28 08:16:51;;;;;;;13.20;3.25;;;;;;;25.15;66.17;99799.53;125676;1096;22770;-62
2021/07/28 08:19:23;;;;;;;15.60;3.73;;;;;;;25.21;66.27;99794.30;125728;1095;22800;-62
2021/07/28 08:21:55;;;;;;;12.43;3.53;;;;;;;25.29;66.29;99794.95;125696;1095;22997;-62
2021/07/28 08:24:27;;;;;;;10.43;3.73;;;;;;;25.36;66.06;99786.29;125569;1096;22863;-64
2021/07/28 08:26:59;;;;;;;9.80;3.10;;;;;;;25.46;65.84;99794.93;125845;1095;23005;-63
2021/07/28 08:29:30;;;;;;;8.18;3.13;;;;;;;25.56;65.16;99790.02;125623;1096;22773;-62
2021/07/28 08:32:02;;;;;;;8.68;2.93;;;;;;;25.66;65.58;99791.56;125564;1096;22861;-62
2021/07/28 08:34:34;;;;;;;15.53;3.70;;;;;;;25.76;64.91;99790.86;125792;1096;25884;-61
2021/07/28 08:37:06;;;;;;;11.60;3.68;;;;;;;25.85;64.72;99790.13;125925;1096;22835;-60
2021/07/28 08:39:38;;;;;;;13.43;3.60;;;;;;;25.96;64.09;99795.29;125550;1096;25881;-63
2021/07/28 08:42:11;;;;;;;13.18;3.45;;;;;;;26.05;63.97;99797.44;125696;1095;24473;-62
2021/07/28 08:44:44;;;;;;;12.15;3.40;;;;;;;26.14;64.01;99797.48;125650;1097;23002;-62
2021/07/28 08:47:18;;;;;;;10.93;3.20;;;;;;;26.23;63.86;99799.62;125711;1096;23054;-60
2021/07/28 08:49:52;;;;;;;9.43;3.05;;;;;;;26.31;62.79;99800.23;125712;1095;25861;-59
2021/07/28 08:52:25;;;;;;;9.78;2.98;;;;;;;26.40;62.16;99802.34;125659;1096;22809;-61
2021/07/28 08:54:56;;;;;;;16.68;3.55;;;;;;;26.48;61.85;99808.67;125712;1096;22874;-61
2021/07/28 08:57:33;;;;;;;16.83;3.88;;;;;;;26.54;62.00;99807.63;125672;1096;23321;-63
2021/07/28 09:00:09;;;;;;;13.13;3.95;;;;;;;26.59;61.79;99813.05;125577;1095;22941;-62
2021/07/28 09:02:41;;;;;;;19.18;3.50;;;;;;;26.65;60.97;99809.91;125779;1097;25609;-61
2021/07/28 09:05:13;;;;;;;21.15;3.73;;;;;;;26.68;61.05;99814.42;125612;1095;24458;-62
2021/07/28 09:07:53;;;;;;;12.20;2.73;;;;;;;26.74;59.50;99807.07;125810;1096;27214;-62
2021/07/28 09:10:25;;;;;;;;;;;;;;;26.82;59.78;99812.64;125620;1096;22929;-62
2021/07/28 09:12:58;;;;;;;12.68;2.93;;;;;;;26.91;59.01;99809.03;125726;1096;21457;-63
2021/07/28 09:15:39;;;;;;;15.30;3.03;;;;;;;27.01;58.47;99809.77;126043;1096;22868;-61
2021/07/28 09:18:32;;;;;;;12.93;2.83;;;;;;;27.13;58.20;99810.66;125762;1096;26302;-63
2021/07/28 09:21:05;;;;;;;14.60;3.20;;;;;;;27.27;57.92;99817.44;125836;1095;25866;-61
2021/07/28 09:23:41;;;;;;;15.93;3.15;;;;;;;27.40;57.27;99816.97;125698;1096;22774;-62
2021/07/28 09:26:37;;;;;;;9.53;2.55;;;;;;;27.47;56.04;99815.30;125723;1095;24481;-62
2021/07/28 09:29:10;;;;;;;9.63;2.40;;;;;;;27.51;55.88;99810.61;125776;1096;27186;-61
2021/07/28 09:31:45;;;;;;;10.07;2.07;;;;;;;27.56;55.35;99817.39;125737;1094;22916;-61
2021/07/28 09:34:37;;;;;;;13.00;2.47;;;;;;;27.67;55.63;99808.13;125667;1094;24183;-63
2021/07/28 09:37:13;;;;;;;8.13;2.65;;;;;;;27.90;54.88;99806.23;125808;1096;24685;-63
2021/07/28 09:39:49;;;;;;;7.05;2.40;;;;;;;28.03;54.54;99804.23;125664;1095;22777;-64
2021/07/28 09:42:27;;;;;;;10.03;3.20;;;;;;;28.19;54.74;99806.10;125623;1096;27370;-62
2021/07/28 09:45:00;;;;;;;10.10;2.95;;;;;;;28.30;53.56;99802.57;125472;1096;22807;-62
2021/07/28 09:47:41;;;;;;;10.17;2.90;;;;;;;28.40;53.91;99799.63;125736;1096;24480;-62
2021/07/28 09:50:19;;;;;;;9.77;2.60;;;;;;;28.56;53.83;99792.13;125502;1094;22785;-62
2021/07/28 09:53:07;;;;;;;7.60;2.43;;;;;;;28.70;53.15;99811.05;125667;1096;26025;-62
2021/07/28 09:55:53;;;;;;;10.93;2.75;;;;;;;28.82;52.74;99805.38;125574;1095;22780;-63
2021/07/28 09:58:25;;;;;;;7.35;2.75;;;;;;;28.86;51.97;99804.89;125556;1096;24439;-63
2021/07/28 10:00:57;;;;;;;9.93;2.15;;;;;;;28.89;52.17;99807.27;125783;1096;22777;-65
2021/07/28 10:03:29;;;;;;;10.25;2.33;;;;;;;28.86;51.51;99799.91;125554;1096;22783;-63
2021/07/28 10:06:01;;;;;;;7.53;2.33;;;;;;;28.88;51.29;99802.91;125696;1097;22783;-64
2021/07/28 10:08:34;;;;;;;8.50;2.63;;;;;;;28.91;51.27;99795.91;125914;1096;22858;-61
2021/07/28 10:11:06;;;;;;;11.38;2.20;;;;;;;29.02;51.67;99791.58;125624;1097;22831;-63
2021/07/28 10:13:38;;;;;;;7.80;2.38;;;;;;;29.08;50.75;99786.23;125656;1096;22803;-63
2021/07/28 10:16:10;;;;;;;7.73;2.30;;;;;;;29.14;51.14;99792.37;125786;1096;23522;-63
2021/07/28 10:18:42;;;;;;;9.48;2.58;;;;;;;29.21;50.13;99785.67;125685;1096;27221;-63
2021/07/28 10:21:13;;;;;;;8.35;2.30;;;;;;;29.23;50.18;99785.80;125594;1096;27686;-62
2021/07/28 10:23:47;;;;;;;9.98;2.28;;;;;;;29.26;49.82;99785.30;125629;1095;22806;-65
2021/07/28 10:26:20;;;;;;;8.40;2.65;;;;;;;29.31;48.97;99784.20;125757;1097;22934;-61
2021/07/28 10:28:54;;;;;;;5.68;1.85;;;;;;;29.36;48.53;99773.72;125678;1097;22781;-59
2021/07/28 10:31:28;;;;;;;9.83;3.03;;;;;;;29.49;48.44;99779.60;125486;1096;30687;-62
2021/07/28 10:34:00;;;;;;;7.28;2.13;;;;;;;29.61;47.34;99773.84;125679;1096;22871;-62
2021/07/28 10:36:49;;;;;;;6.08;1.95;;;;;;;29.71;47.90;99771.63;125551;1096;22804;-62
2021/07/28 10:39:40;;;;;;;10.43;3.15;;;;;;;29.75;46.47;99759.64;125588;1096;27182;-60
2021/07/28 10:42:14;;;;;;;7.70;2.18;;;;;;;29.76;47.23;99761.88;125743;1095;25886;-61
2021/07/28 10:45:07;;;;;;;6.63;2.15;;;;;;;29.84;46.41;99758.77;125707;1095;26703;-61
2021/07/28 10:47:43;;;;;;;10.55;2.68;;;;;;;29.81;46.34;99757.14;125808;1096;22803;-61
2021/07/28 10:50:46;;;;;;;11.00;2.28;;;;;;;29.76;46.23;99753.25;125659;1096;27252;-61
2021/07/28 10:53:49;;;;;;;9.53;3.03;;;;;;;29.73;46.41;99756.64;125098;1097;24188;-62
2021/07/28 10:56:21;;;;;;;11.00;2.57;;;;;;;29.89;46.50;99757.63;125064;1097;22813;-62
2021/07/28 10:58:52;;;;;;;8.15;2.10;;;;;;;30.00;46.09;99759.76;125163;1097;23282;-61
2021/07/28 11:01:53;;;;;;;7.13;2.18;;;;;;;30.06;46.04;99757.24;125161;1097;25896;-62
2021/07/28 11:04:29;;;;;;;13.40;2.28;;;;;;;30.12;46.34;99755.48;125196;1097;22799;-61
2021/07/28 11:07:00;;;;;;;7.75;2.20;;;;;;;30.21;45.87;99748.81;125247;1097;22796;-59
2021/07/28 11:09:32;;;;;;;8.65;2.50;;;;;;;30.31;46.41;99745.84;125154;1097;23066;-61
2021/07/28 11:12:05;;;;;;;8.75;2.08;;;;;;;30.38;45.05;99744.80;125353;1097;22814;-62
2021/07/28 11:14:43;;;;;;;12.95;2.25;;;;;;;30.48;45.57;99759.79;125339;1097;25878;-63
2021/07/28 11:17:27;;;;;;;12.38;2.60;;;;;;;30.50;44.42;99745.51;125145;1097;26018;-62
2021/07/28 11:19:58;;;;;;;6.57;1.93;;;;;;;30.46;44.73;99735.91;125104;1099;22845;-62
2021/07/28 11:22:29;;;;;;;6.90;2.15;;;;;;;30.45;44.92;99734.39;125050;1097;22811;-62
2021/07/28 11:25:01;;;;;;;8.13;1.90;;;;;;;30.43;45.09;99735.03;125051;1099;22805;-62
2021/07/28 11:27:33;;;;;;;6.95;2.00;;;;;;;30.48;44.19;99736.02;125116;1097;22851;-62
2021/07/28 11:30:15;;;;;;;7.10;2.05;;;;;;;30.45;45.09;99740.91;125200;1100;26627;-62
2021/07/28 11:32:46;;;;;;;7.43;2.00;;;;;;;30.48;44.57;99730.26;125681;1096;22772;-61
2021/07/28 11:35:18;;;;;;;6.73;1.93;;;;;;;30.51;44.11;99731.86;125647;1096;22780;-63
2021/07/28 11:37:50;;;;;;;7.50;2.10;;;;;;;30.53;43.76;99723.34;125714;1096;22777;-61
2021/07/28 11:40:22;;;;;;;8.25;2.00;;;;;;;30.57;43.81;99717.80;125540;1096;25855;-61
2021/07/28 11:42:54;;;;;;;7.28;1.75;;;;;;;30.62;43.76;99726.07;125605;1096;27192;-62
2021/07/28 11:45:39;;;;;;;5.20;1.75;;;;;;;30.65;43.82;99730.55;125459;1096;25989;-61
2021/07/28 11:48:31;;;;;;;8.13;2.10;;;;;;;30.67;43.98;99729.91;127353;1095;22828;-61
2021/07/28 11:51:07;;;;;;;9.53;2.10;;;;;;;30.68;43.55;99729.30;129819;1095;22553;-61
2021/07/28 11:53:39;;;;;;;8.15;1.90;;;;;;;30.65;43.25;99724.79;129862;1095;23432;-61